Time;durP1;ratioP1;P1;durP2;ratioP2;P2;SDS_P1;SDS_P2;PMS_P1;PMS_P2;Temp;Humidity;BMP_temperature;BMP_pressure;BME280_temperature;BME280_humidity;BME280_pressure;Samples;Min_cycle;Max_cycle;Signal;HPM_P1;HPM_P2
2023/03/21 06:44:44;;;;;;;5.50;3.60;;;6.90;99.90;;;;;;5071501;28;20634;-76
2023/03/21 06:53:48;;;;;;;5.03;3.37;;;;;;;;;;5131742;27;20275;-75
2023/03/21 07:01:16;;;;;;;6.13;3.97;;;;;;;;;;5070743;28;20558;-77
2023/03/21 07:06:47;;;;;;;5.13;3.63;;;7.40;99.90;;;;;;5111059;27;20556;-76
2023/03/21 07:12:59;;;;;;;4.63;3.20;;;7.60;99.90;;;;;;5132284;27;20273;-76
2023/03/21 07:19:29;;;;;;;5.83;3.70;;;7.80;99.90;;;;;;5132254;27;20264;-76
2023/03/21 07:25:36;;;;;;;7.10;4.27;;;7.50;99.90;;;;;;5132650;27;20281;-75
2023/03/21 07:31:39;;;;;;;5.53;3.47;;;7.40;99.90;;;;;;5132334;27;20624;-76
2023/03/21 07:37:08;;;;;;;4.83;3.70;;;;;;;;;;5071668;28;20551;-76
2023/03/21 07:42:26;;;;;;;5.20;3.63;;;7.80;99.90;;;;;;5132201;27;20279;-76
2023/03/21 07:49:42;;;;;;;4.33;3.50;;;7.90;99.90;;;;;;5132560;27;20279;-77
2023/03/21 07:53:32;;;;;;;5.40;3.60;;;;;;;;;;5131780;27;20290;-76
2023/03/21 07:57:29;;;;;;;7.33;3.77;;;8.40;99.90;;;;;;5132479;27;20604;-76
2023/03/21 08:01:26;;;;;;;7.50;3.97;;;8.60;99.90;;;;;;5131962;27;20660;-76
2023/03/21 08:05:17;;;;;;;5.00;3.47;;;8.70;99.90;;;;;;5132573;27;20755;-76
2023/03/21 08:10:03;;;;;;;5.73;4.10;;;9.00;99.90;;;;;;5132767;27;20270;-76
2023/03/21 08:12:29;;;;;;;6.07;3.87;;;;;;;;;;5131525;28;20204;-76
2023/03/21 08:14:55;;;;;;;5.80;3.90;;;;;;;;;;5131765;28;20202;-76
2023/03/21 08:17:21;;;;;;;8.57;3.43;;;;;;;;;;5130316;28;20218;-77
2023/03/21 08:19:48;;;;;;;4.27;3.83;;;;;;;;;;5130579;28;20174;-76
2023/03/21 08:22:13;;;;;;;3.67;3.37;;;9.60;99.90;;;;;;5131446;27;20706;-76
2023/03/21 08:24:39;;;;;;;3.93;3.20;;;9.70;99.90;;;;;;5131642;27;20171;-76
2023/03/21 08:27:05;;;;;;;5.87;3.37;;;9.70;99.90;;;;;;5131530;27;20198;-76
2023/03/21 08:29:31;;;;;;;5.67;3.40;;;9.70;99.90;;;;;;5132417;27;20195;-79
2023/03/21 08:31:57;;;;;;;4.57;3.80;;;9.80;99.90;;;;;;5132538;27;20191;-75
2023/03/21 08:34:22;;;;;;;3.87;3.17;;;9.90;99.90;;;;;;5131540;27;20178;-76
2023/03/21 08:36:48;;;;;;;3.83;3.33;;;;;;;;;;5132190;27;20224;-76
2023/03/21 08:39:14;;;;;;;8.30;3.37;;;9.80;99.90;;;;;;5131620;28;20190;-76
2023/03/21 08:41:40;;;;;;;3.27;2.77;;;10.00;99.90;;;;;;5131187;27;20199;-75
2023/03/21 08:44:05;;;;;;;5.57;2.73;;;10.20;99.90;;;;;;5131285;27;20232;-75
2023/03/21 08:46:32;;;;;;;3.80;2.80;;;10.20;99.90;;;;;;5131119;27;20183;-76
2023/03/21 08:48:57;;;;;;;4.23;3.13;;;10.30;99.90;;;;;;5131454;27;20614;-76
2023/03/21 08:51:23;;;;;;;3.40;2.27;;;10.40;99.90;;;;;;5130047;28;20708;-76
2023/03/21 08:53:50;;;;;;;2.87;1.90;;;10.50;99.90;;;;;;5130928;27;20175;-75
2023/03/21 08:56:16;;;;;;;2.20;2.00;;;10.50;99.90;;;;;;5130966;27;20251;-75
2023/03/21 08:58:43;;;;;;;4.83;2.30;;;10.70;99.90;;;;;;5129690;28;20236;-75
2023/03/21 09:01:14;;;;;;;2.83;2.30;;;11.10;99.90;;;;;;5131329;27;20198;-75
2023/03/21 09:03:41;;;;;;;3.37;2.33;;;11.20;99.90;;;;;;5130857;27;20208;-76
2023/03/21 09:06:09;;;;;;;5.03;2.10;;;11.30;99.90;;;;;;5130970;27;20254;-75
2023/03/21 09:08:37;;;;;;;6.83;2.00;;;11.40;99.90;;;;;;5129710;28;20218;-75
2023/03/21 09:11:02;;;;;;;2.33;2.13;;;11.20;99.90;;;;;;5130696;27;20191;-76
2023/03/21 09:13:28;;;;;;;3.30;2.20;;;11.30;99.90;;;;;;5130529;27;20171;-75
2023/03/21 09:15:56;;;;;;;3.13;2.50;;;11.60;99.90;;;;;;5130840;27;20261;-76
2023/03/21 09:18:37;;;;;;;4.20;2.30;;;11.70;99.90;;;;;;5131418;27;20182;-75
2023/03/21 09:21:11;;;;;;;5.73;2.70;;;11.60;99.90;;;;;;5119175;27;20195;-75
2023/03/21 09:23:38;;;;;;;4.10;2.80;;;11.60;99.90;;;;;;5116691;28;20632;-76
2023/03/21 09:26:04;;;;;;;3.30;2.80;;;11.50;99.90;;;;;;5117027;28;20422;-75
2023/03/21 09:28:30;;;;;;;3.13;2.80;;;11.60;99.90;;;;;;5116798;28;20218;-75
2023/03/21 09:30:59;;;;;;;3.63;3.00;;;11.50;99.90;;;;;;5116674;28;20657;-76
2023/03/21 09:33:26;;;;;;;7.63;2.97;;;11.60;99.90;;;;;;5116457;28;20182;-75
2023/03/21 09:35:53;;;;;;;4.93;2.67;;;11.70;99.90;;;;;;5116827;28;20175;-75
2023/03/21 09:38:19;;;;;;;3.03;2.70;;;11.90;99.90;;;;;;5116651;28;20613;-75
2023/03/21 09:41:12;;;;;;;3.73;2.70;;;12.30;99.90;;;;;;5115261;28;20215;-75
2023/03/21 09:44:02;;;;;;;3.20;2.83;;;12.30;99.90;;;;;;5115086;28;20696;-76
2023/03/21 09:46:50;;;;;;;4.33;3.30;;;12.10;99.90;;;;;;5116450;28;20196;-75
2023/03/21 09:49:29;;;;;;;4.67;3.10;;;12.00;99.90;;;;;;5116356;28;20192;-75
2023/03/21 09:51:58;;;;;;;3.83;2.80;;;12.00;99.90;;;;;;5116291;28;20745;-76
2023/03/21 09:54:41;;;;;;;4.47;3.07;;;12.00;99.90;;;;;;5115082;28;20644;-75
2023/03/21 09:57:20;;;;;;;4.53;3.10;;;12.10;99.90;;;;;;5116526;28;20160;-76
2023/03/21 09:59:49;;;;;;;3.53;3.10;;;12.30;99.90;;;;;;5116241;28;20196;-76
2023/03/21 10:02:31;;;;;;;4.40;3.40;;;12.40;99.90;;;;;;5116461;28;20571;-76
2023/03/21 10:04:59;;;;;;;5.17;2.93;;;12.40;99.90;;;;;;5117737;28;20175;-76
2023/03/21 10:07:29;;;;;;;3.77;2.80;;;12.50;99.90;;;;;;5120287;28;20232;-75
2023/03/21 10:09:58;;;;;;;4.00;2.90;;;12.30;99.90;;;;;;5117461;28;20211;-76
2023/03/21 10:12:29;;;;;;;4.00;3.10;;;12.20;99.90;;;;;;5115708;28;20191;-76
2023/03/21 10:14:57;;;;;;;6.20;2.83;;;12.40;99.90;;;;;;5114668;28;20174;-76
2023/03/21 10:17:36;;;;;;;5.23;3.10;;;12.50;99.90;;;;;;5115912;28;20176;-76
2023/03/21 10:20:09;;;;;;;3.77;3.00;;;;;;;;;;5115814;28;20171;-75
2023/03/21 10:22:35;;;;;;;5.57;3.10;;;12.70;99.90;;;;;;5115576;28;20172;-75
2023/03/21 10:25:01;;;;;;;4.03;3.03;;;13.00;99.90;;;;;;5115587;28;20637;-75
2023/03/21 10:27:27;;;;;;;5.30;3.50;;;13.10;99.90;;;;;;5116261;28;20179;-75
2023/03/21 10:29:56;;;;;;;4.50;3.30;;;13.30;99.90;;;;;;5115746;28;20664;-75
2023/03/21 10:32:22;;;;;;;3.90;3.20;;;13.40;99.90;;;;;;5113145;28;20209;-75
2023/03/21 10:34:55;;;;;;;4.27;3.37;;;13.30;99.90;;;;;;5115510;28;20168;-76
2023/03/21 10:37:22;;;;;;;3.43;3.10;;;13.40;99.90;;;;;;5115841;28;20237;-75
2023/03/21 10:39:51;;;;;;;3.50;3.20;;;13.30;99.90;;;;;;5115694;28;20181;-75
2023/03/21 10:42:23;;;;;;;5.43;3.27;;;13.10;99.90;;;;;;5115243;27;20792;-76
2023/03/21 10:44:51;;;;;;;4.93;3.33;;;12.90;99.90;;;;;;5115265;28;20221;-75
2023/03/21 10:47:24;;;;;;;3.63;3.33;;;12.60;99.90;;;;;;5115358;28;20614;-76
2023/03/21 10:49:50;;;;;;;6.30;3.30;;;12.70;99.90;;;;;;5115162;27;20292;-75
2023/03/21 10:52:20;;;;;;;4.00;3.50;;;12.80;99.90;;;;;;5114970;28;20192;-75
2023/03/21 10:54:47;;;;;;;5.33;3.30;;;13.00;99.90;;;;;;5115302;28;20225;-76
2023/03/21 10:57:21;;;;;;;5.93;3.80;;;13.10;99.90;;;;;;5114965;28;20660;-76
2023/03/21 10:59:53;;;;;;;4.10;3.43;;;13.40;99.90;;;;;;5114985;28;20172;-76
2023/03/21 11:02:29;;;;;;;5.03;3.30;;;13.70;99.90;;;;;;5114633;28;20195;-76
2023/03/21 11:04:57;;;;;;;6.53;3.90;;;13.80;99.90;;;;;;5115048;28;20511;-75
2023/03/21 11:07:29;;;;;;;4.33;3.93;;;13.80;99.90;;;;;;5114719;28;20175;-76
2023/03/21 11:09:59;;;;;;;5.03;3.37;;;13.50;99.90;;;;;;5114804;28;20506;-76
2023/03/21 11:12:39;;;;;;;5.50;3.33;;;13.30;99.90;;;;;;5114419;28;20322;-76
2023/03/21 11:15:35;;;;;;;6.90;3.57;;;13.50;99.90;;;;;;5114930;28;20243;-77
2023/03/21 11:18:14;;;;;;;3.90;3.50;;;13.70;99.90;;;;;;5114849;28;20177;-76
2023/03/21 11:20:55;;;;;;;4.17;3.10;;;13.90;99.90;;;;;;5114814;28;20198;-76
2023/03/21 11:23:25;;;;;;;5.17;3.40;;;14.00;99.90;;;;;;5114353;28;20156;-76
2023/03/21 11:25:51;;;;;;;6.10;3.80;;;14.00;99.90;;;;;;5114484;28;20172;-76
2023/03/21 11:28:23;;;;;;;3.57;3.27;;;14.10;99.90;;;;;;5114635;28;20277;-76
2023/03/21 11:30:58;;;;;;;4.40;3.17;;;14.20;99.90;;;;;;5114349;28;20663;-76
2023/03/21 11:33:40;;;;;;;3.90;3.47;;;14.20;99.90;;;;;;5114168;27;20191;-76
2023/03/21 11:36:26;;;;;;;5.00;3.40;;;14.30;99.90;;;;;;5113087;28;20209;-76
2023/03/21 11:39:11;;;;;;;3.60;2.90;;;14.40;99.90;;;;;;5114536;28;20187;-76
2023/03/21 11:41:39;;;;;;;3.87;3.47;;;14.40;99.90;;;;;;5114052;28;20240;-77
2023/03/21 11:44:05;;;;;;;3.50;3.20;;;14.30;99.90;;;;;;5113013;28;20191;-77
2023/03/21 11:46:38;;;;;;;5.17;3.40;;;14.30;99.90;;;;;;5114495;28;20181;-77
2023/03/21 11:49:04;;;;;;;3.70;3.07;;;14.50;99.90;;;;;;5114452;28;20195;-77
2023/03/21 11:51:41;;;;;;;7.73;3.40;;;14.70;99.90;;;;;;5112999;28;20198;-77
2023/03/21 11:54:12;;;;;;;3.47;3.03;;;14.80;99.90;;;;;;5114198;28;20157;-77
2023/03/21 11:56:46;;;;;;;3.30;3.00;;;14.80;99.90;;;;;;5114437;28;20176;-76
2023/03/21 11:59:23;;;;;;;8.40;3.03;;;14.70;99.90;;;;;;5114108;28;20567;-76
2023/03/21 12:02:10;;;;;;;3.50;3.20;;;14.90;99.90;;;;;;5113891;28;20201;-76
2023/03/21 12:04:40;;;;;;;5.23;3.00;;;14.90;99.90;;;;;;5118769;27;20184;-76
2023/03/21 12:07:25;;;;;;;4.10;3.00;;;14.70;99.90;;;;;;5133057;28;20171;-76
2023/03/21 12:10:11;;;;;;;9.30;3.80;;;14.70;99.90;;;;;;5133000;28;20221;-76
2023/03/21 12:12:48;;;;;;;5.73;3.97;;;14.80;99.90;;;;;;5102419;27;20188;-77
2023/03/21 12:15:32;;;;;;;4.27;3.73;;;15.00;99.90;;;;;;5136309;28;20189;-76
2023/03/21 12:18:35;;;;;;;5.07;4.20;;;15.20;99.90;;;;;;5133082;28;20267;-77
2023/03/21 12:21:57;;;;;;;5.60;4.07;;;15.20;99.90;;;;;;5134160;28;20196;-75
2023/03/21 12:24:35;;;;;;;6.00;3.57;;;15.10;99.90;;;;;;5055463;28;20191;-76
2023/03/21 12:27:25;;;;;;;4.30;3.90;;;15.10;99.90;;;;;;5126252;27;20621;-76
2023/03/21 12:30:12;;;;;;;5.80;4.07;;;15.70;99.90;;;;;;5134136;28;20200;-76
2023/03/21 12:32:50;;;;;;;5.33;4.83;;;16.00;99.90;;;;;;5132637;28;20512;-75
2023/03/21 12:35:37;;;;;;;4.10;3.70;;;16.10;99.90;;;;;;5134170;28;20177;-76
2023/03/21 12:38:30;;;;;;;5.70;3.60;;;16.10;99.90;;;;;;5134184;28;20172;-76
2023/03/21 12:41:14;;;;;;;4.57;3.67;;;16.00;99.90;;;;;;5132624;28;20295;-76
2023/03/21 12:43:54;;;;;;;5.37;4.20;;;15.90;99.90;;;;;;5133739;28;20221;-76
2023/03/21 12:46:26;;;;;;;4.10;3.67;;;15.90;99.90;;;;;;5134150;28;20177;-76
2023/03/21 12:49:07;;;;;;;4.60;3.83;;;16.10;99.90;;;;;;5133956;28;20663;-76
2023/03/21 12:51:39;;;;;;;5.07;3.90;;;16.40;99.90;;;;;;5133757;28;20196;-76
2023/03/21 12:54:26;;;;;;;4.17;3.77;;;16.40;99.90;;;;;;5132530;27;20178;-76
2023/03/21 12:57:00;;;;;;;4.60;4.20;;;16.50;99.90;;;;;;5137838;27;20619;-76
2023/03/21 12:59:36;;;;;;;5.47;4.10;;;16.70;99.90;;;;;;5137730;27;20161;-76
2023/03/21 13:02:25;;;;;;;5.67;3.67;;;16.80;99.90;;;;;;5137388;27;20268;-76
2023/03/21 13:05:17;;;;;;;8.67;4.83;;;16.80;99.90;;;;;;5137932;27;20175;-76
2023/03/21 13:07:50;;;;;;;6.70;4.30;;;16.70;99.90;;;;;;5137517;27;20178;-77
2023/03/21 13:10:19;;;;;;;8.13;4.10;;;16.70;99.90;;;;;;5137555;27;20159;-76
2023/03/21 13:13:12;;;;;;;5.17;4.60;;;16.90;99.90;;;;;;5136047;27;20639;-76
2023/03/21 13:15:51;;;;;;;6.40;4.50;;;17.20;99.90;;;;;;5136150;27;20171;-76
2023/03/21 13:18:33;;;;;;;12.63;4.83;;;17.60;99.90;;;;;;5137857;27;20520;-76
2023/03/21 13:21:05;;;;;;;9.53;5.77;;;17.90;99.90;;;;;;5137324;27;20179;-76
2023/03/21 13:23:36;;;;;;;9.57;5.57;;;18.30;99.70;;;;;;5137095;27;20180;-76
2023/03/21 13:26:03;;;;;;;4.67;4.27;;;18.40;98.40;;;;;;5135877;27;20231;-76
2023/03/21 13:28:32;;;;;;;6.70;4.20;;;18.80;97.90;;;;;;5135848;27;20198;-77
2023/03/21 13:31:20;;;;;;;8.43;4.40;;;19.30;97.40;;;;;;5137038;27;20282;-76
2023/03/21 13:33:53;;;;;;;5.80;4.00;;;19.10;97.50;;;;;;5136983;27;20199;-77
2023/03/21 13:36:29;;;;;;;9.27;5.87;;;19.60;93.50;;;;;;5137053;27;20159;-77
2023/03/21 13:39:04;;;;;;;7.87;5.17;;;19.70;93.90;;;;;;5137130;27;20167;-76
2023/03/21 13:41:37;;;;;;;8.20;4.90;;;19.50;94.70;;;;;;5137064;27;20667;-77
2023/03/21 13:44:03;;;;;;;7.13;4.27;;;19.40;93.40;;;;;;5136872;27;20599;-77
2023/03/21 13:46:29;;;;;;;6.77;5.50;;;19.40;93.30;;;;;;5137137;27;20648;-78
2023/03/21 13:48:57;;;;;;;6.63;3.13;;;19.40;94.70;;;;;;5137043;27;20203;-78
2023/03/21 13:51:35;;;;;;;4.10;2.60;;;19.30;90.80;;;;;;5136728;27;20589;-78
2023/03/21 13:54:07;;;;;;;2.80;2.60;;;18.90;88.10;;;;;;5135376;27;20635;-77
2023/03/21 13:56:49;;;;;;;3.07;2.10;;;18.60;83.90;;;;;;5136671;27;20234;-77
2023/03/21 13:59:33;;;;;;;1.83;1.70;;;17.90;84.80;;;;;;5136222;27;20190;-77
2023/03/21 14:02:32;;;;;;;3.30;1.77;;;17.80;76.20;;;;;;5135137;27;20199;-77
2023/03/21 14:05:04;;;;;;;2.47;1.90;;;17.60;74.70;;;;;;5136850;27;20186;-77
2023/03/21 14:07:39;;;;;;;2.10;1.90;;;17.70;83.10;;;;;;5140647;27;20179;-77
2023/03/21 14:10:16;;;;;;;2.50;2.07;;;17.90;76.30;;;;;;5139715;27;20636;-77
2023/03/21 14:12:44;;;;;;;1.90;1.77;;;17.90;74.30;;;;;;5136851;27;20162;-76
2023/03/21 14:15:17;;;;;;;1.80;1.70;;;17.60;77.70;;;;;;5136774;27;20250;-77
2023/03/21 14:18:15;;;;;;;2.50;1.90;;;17.60;77.00;;;;;;5136879;27;20191;-77
2023/03/21 14:20:41;;;;;;;2.40;2.20;;;17.70;76.40;;;;;;5136029;27;20202;-77
2023/03/21 14:23:15;;;;;;;2.40;2.20;;;17.40;79.80;;;;;;5136231;27;20248;-77
2023/03/21 14:25:44;;;;;;;2.43;2.20;;;17.40;78.40;;;;;;5136348;27;20167;-77
2023/03/21 14:28:38;;;;;;;3.27;2.13;;;17.40;78.60;;;;;;5134914;27;20204;-77
2023/03/21 14:31:04;;;;;;;3.23;2.00;;;17.30;77.90;;;;;;5133514;27;20213;-77
2023/03/21 14:33:40;;;;;;;3.70;1.90;;;17.20;79.40;;;;;;5135950;27;20662;-77
2023/03/21 14:36:11;;;;;;;2.20;2.10;;;17.10;81.20;;;;;;5136122;27;20157;-76
2023/03/21 14:38:38;;;;;;;2.97;1.80;;;16.90;80.10;;;;;;5136050;27;20554;-77
2023/03/21 14:41:04;;;;;;;4.00;2.03;;;16.60;81.10;;;;;;5134747;27;20202;-77
2023/03/21 14:43:33;;;;;;;3.00;2.43;;;16.40;82.60;;;;;;5135716;27;20226;-77
2023/03/21 14:46:00;;;;;;;3.93;2.30;;;16.30;81.70;;;;;;5134467;27;20181;-76
2023/03/21 14:48:31;;;;;;;2.90;2.50;;;16.30;82.30;;;;;;5135790;27;20652;-77
2023/03/21 14:51:02;;;;;;;2.70;2.50;;;16.10;82.00;;;;;;5135665;27;20282;-77
2023/03/21 14:53:36;;;;;;;3.17;2.20;;;16.10;82.10;;;;;;5134433;27;20632;-77
2023/03/21 14:56:22;;;;;;;2.73;2.00;;;16.10;79.90;;;;;;5134465;27;20181;-77
2023/03/21 14:58:49;;;;;;;2.03;1.83;;;16.00;78.10;;;;;;5136216;27;20261;-77
2023/03/21 15:01:27;;;;;;;2.47;2.27;;;15.80;77.00;;;;;;5135255;27;20202;-77
2023/03/21 15:03:53;;;;;;;2.47;1.80;;;15.80;76.90;;;;;;5135364;27;20240;-76
2023/03/21 15:06:19;;;;;;;2.60;2.40;;;15.70;79.10;;;;;;5135588;27;20649;-76
2023/03/21 15:08:56;;;;;;;3.77;2.57;;;15.60;79.90;;;;;;5135058;27;20686;-77
2023/03/21 15:11:28;;;;;;;2.70;2.23;;;15.50;81.40;;;;;;5134206;27;20199;-77
2023/03/21 15:13:55;;;;;;;5.00;2.50;;;15.50;79.20;;;;;;5133911;27;20196;-76
2023/03/21 15:16:21;;;;;;;3.03;2.60;;;15.60;80.20;;;;;;5134000;27;20168;-77
2023/03/21 15:18:48;;;;;;;5.43;2.53;;;15.70;81.20;;;;;;5134625;27;20259;-76
2023/03/21 15:21:22;;;;;;;2.40;2.20;;;15.70;81.60;;;;;;5135512;27;20560;-76
2023/03/21 15:23:52;;;;;;;2.63;2.00;;;15.60;81.50;;;;;;5134924;27;20163;-76
2023/03/21 15:26:22;;;;;;;2.67;2.20;;;15.40;77.30;;;;;;5133896;27;20173;-76
2023/03/21 15:28:54;;;;;;;2.27;2.07;;;15.40;78.20;;;;;;5135277;27;20664;-76
2023/03/21 15:31:22;;;;;;;2.40;2.20;;;15.30;77.00;;;;;;5135052;27;20602;-76
2023/03/21 15:33:51;;;;;;;2.70;2.50;;;15.30;78.90;;;;;;5134757;27;20522;-76
2023/03/21 15:36:24;;;;;;;5.77;2.33;;;15.20;79.10;;;;;;5135000;27;20214;-76
2023/03/21 15:38:49;;;;;;;2.63;2.43;;;15.10;79.10;;;;;;5135173;27;20643;-76
2023/03/21 15:41:18;;;;;;;3.13;2.83;;;15.00;79.30;;;;;;5134779;27;20198;-76
2023/03/21 15:43:52;;;;;;;4.47;2.40;;;14.90;80.80;;;;;;5134614;27;20649;-76
2023/03/21 15:46:31;;;;;;;2.43;2.23;;;14.80;80.70;;;;;;5134702;27;20201;-76
2023/03/21 15:49:11;;;;;;;4.77;2.83;;;14.70;81.70;;;;;;5134947;27;20184;-76
2023/03/21 15:51:39;;;;;;;2.90;2.40;;;14.60;81.90;;;;;;5134656;27;20218;-77
2023/03/21 15:54:13;;;;;;;2.43;2.10;;;14.50;81.10;;;;;;5133442;27;20193;-76
2023/03/21 15:56:44;;;;;;;4.30;2.00;;;14.40;80.20;;;;;;5134694;27;20676;-76
2023/03/21 15:59:18;;;;;;;2.23;2.03;;;14.30;78.90;;;;;;5134711;27;20163;-76
2023/03/21 16:01:47;;;;;;;2.63;2.10;;;14.20;80.00;;;;;;5133156;27;20207;-76
2023/03/21 16:04:14;;;;;;;2.10;1.90;;;14.10;79.90;;;;;;5134564;27;20168;-76
2023/03/21 16:07:02;;;;;;;2.20;1.93;;;14.00;79.50;;;;;;5134535;27;20202;-77
2023/03/21 16:09:38;;;;;;;2.07;1.87;;;14.00;79.60;;;;;;5133465;28;20214;-76
2023/03/21 16:12:10;;;;;;;2.93;2.10;;;14.00;80.50;;;;;;5135313;28;20193;-77
2023/03/21 16:14:36;;;;;;;3.73;2.57;;;14.00;79.80;;;;;;5134857;28;20163;-76
2023/03/21 16:17:26;;;;;;;3.17;2.80;;;13.90;79.70;;;;;;5133015;28;20655;-76
